Time;durP1;ratioP1;P1;durP2;ratioP2;P2;SDS_P1;SDS_P2;PMS_P1;PMS_P2;Temp;Humidity;BMP_temperature;BMP_pressure;BME280_temperature;BME280_humidity;BME280_pressure;Samples;Min_cycle;Max_cycle;Signal;HPM_P1;HPM_P2
2022/02/12 00:00:49;;;;;;;0.22;0.00;;;;;;;19.59;37.80;101829.63;5055249;28;20066;-69
2022/02/12 00:03:14;;;;;;;0.30;0.05;;;;;;;19.59;37.53;101821.44;5055602;28;20032;-69
2022/02/12 00:05:40;;;;;;;0.30;0.20;;;;;;;19.55;37.25;101817.31;5055021;28;20025;-68
2022/02/12 00:08:05;;;;;;;0.45;0.10;;;;;;;19.57;37.38;101817.16;5055399;28;20025;-69
2022/02/12 00:10:31;;;;;;;0.20;0.00;;;;;;;19.50;38.37;101806.84;5055255;28;20040;-69
2022/02/12 00:12:57;;;;;;;0.15;0.05;;;;;;;19.51;38.56;101800.38;5055156;28;20024;-68
2022/02/12 00:15:22;;;;;;;1.17;0.45;;;;;;;19.47;37.77;101798.09;5054022;28;20036;-69
2022/02/12 00:17:48;;;;;;;0.10;0.10;;;;;;;19.47;37.43;101795.38;5034985;28;20021;-68
2022/02/12 00:20:15;;;;;;;0.28;0.08;;;;;;;19.45;37.86;101792.78;5034031;28;20525;-68
2022/02/12 00:22:41;;;;;;;0.60;0.10;;;;;;;19.43;36.98;101792.09;5034951;28;20028;-68
2022/02/12 00:25:07;;;;;;;0.30;0.10;;;;;;;19.44;38.19;101788.34;5035053;28;20108;-68
2022/02/12 00:27:32;;;;;;;0.85;0.10;;;;;;;19.43;37.71;101789.38;5033642;28;20091;-68
2022/02/12 00:29:58;;;;;;;1.50;0.22;;;;;;;19.42;37.77;101787.66;5034470;28;20275;-69
2022/02/12 00:32:23;;;;;;;0.75;0.20;;;;;;;19.37;37.45;101776.38;5035019;28;20536;-69
2022/02/12 00:34:49;;;;;;;0.73;0.15;;;;;;;19.41;37.59;101779.63;5033409;28;20304;-68
2022/02/12 00:37:15;;;;;;;0.22;0.05;;;;;;;19.38;37.70;101774.50;5034986;28;20036;-69
2022/02/12 00:39:40;;;;;;;0.30;0.00;;;;;;;19.40;37.40;101767.88;5034596;28;20112;-68
2022/02/12 00:42:06;;;;;;;1.95;0.10;;;;;;;19.36;37.40;101766.47;5035098;28;20025;-68
2022/02/12 00:44:32;;;;;;;0.13;0.10;;;;;;;19.33;38.18;101764.06;5034574;28;20057;-69
2022/02/12 00:46:57;;;;;;;0.25;0.20;;;;;;;19.31;37.39;101768.78;5048114;28;20028;-68
2022/02/12 00:49:23;;;;;;;0.68;0.40;;;;;;;19.30;37.91;101767.09;5053278;28;20536;-67
2022/02/12 00:51:49;;;;;;;1.02;0.10;;;;;;;19.31;38.18;101768.78;5054314;28;20028;-69
2022/02/12 00:54:14;;;;;;;1.85;0.20;;;;;;;19.27;37.78;101767.41;5018096;22;20046;-68
2022/02/12 00:56:40;;;;;;;0.47;0.10;;;;;;;19.29;37.69;101765.38;5014785;28;20041;-68
2022/02/12 00:59:05;;;;;;;0.22;0.00;;;;;;;19.28;37.23;101757.34;5014911;28;20025;-69
2022/02/12 01:01:32;;;;;;;0.63;0.30;;;;;;;19.24;37.16;101757.66;5014490;28;20033;-68
2022/02/12 01:03:58;;;;;;;0.43;0.13;;;;;;;19.27;37.97;101759.22;5014506;28;20045;-67
2022/02/12 01:06:23;;;;;;;0.38;0.10;;;;;;;19.23;37.57;101755.09;5014539;28;20026;-68
2022/02/12 01:08:48;;;;;;;0.82;0.20;;;;;;;19.24;37.04;101763.13;4996684;28;20022;-68
2022/02/12 01:11:14;;;;;;;0.35;0.10;;;;;;;19.19;37.31;101764.59;5014478;28;20025;-68
2022/02/12 01:13:40;;;;;;;0.10;0.10;;;;;;;19.21;37.67;101752.53;5014200;28;20026;-69
2022/02/12 01:16:06;;;;;;;0.57;0.20;;;;;;;19.19;36.98;101753.69;5022797;28;20029;-69
2022/02/12 01:18:32;;;;;;;0.75;0.20;;;;;;;19.18;37.67;101752.00;5033942;28;20028;-68
2022/02/12 01:20:57;;;;;;;0.30;0.10;;;;;;;19.15;37.58;101747.72;5016184;28;20461;-67
2022/02/12 01:23:23;;;;;;;0.00;0.00;;;;;;;19.17;37.34;101750.28;5033985;28;20030;-69
2022/02/12 01:25:48;;;;;;;0.40;0.10;;;;;;;19.17;37.70;101742.09;5033624;28;20025;-70
2022/02/12 01:28:15;;;;;;;1.35;0.10;;;;;;;19.14;37.54;101750.56;5033912;28;20033;-68
2022/02/12 01:30:40;;;;;;;1.00;0.10;;;;;;;19.16;37.01;101743.97;5024353;28;20048;-69
2022/02/12 01:33:06;;;;;;;0.20;0.20;;;;;;;19.13;38.07;101738.81;5014335;28;20521;-68
2022/02/12 01:35:31;;;;;;;1.55;0.30;;;;;;;19.15;37.44;101741.41;4996283;28;20021;-69
2022/02/12 01:37:56;;;;;;;0.43;0.10;;;;;;;19.15;37.62;101735.94;5014425;28;20022;-70
2022/02/12 01:40:24;;;;;;;0.10;0.10;;;;;;;19.15;37.81;101738.69;5013230;28;20536;-68
2022/02/12 01:42:51;;;;;;;2.35;0.30;;;;;;;19.13;37.38;101737.94;5013688;28;20388;-69
2022/02/12 01:45:16;;;;;;;1.10;0.10;;;;;;;19.14;37.82;101739.66;4996334;28;20469;-69
2022/02/12 01:47:41;;;;;;;0.15;0.10;;;;;;;19.11;37.57;101731.78;5013565;28;20066;-69
2022/02/12 01:50:07;;;;;;;0.32;0.10;;;;;;;19.11;37.95;101729.94;5013785;28;20030;-69
2022/02/12 01:52:32;;;;;;;0.80;0.20;;;;;;;19.12;37.45;101725.34;4995766;28;20022;-68
2022/02/12 01:55:00;;;;;;;0.93;0.10;;;;;;;19.09;37.54;101733.81;4996041;28;20038;-69
2022/02/12 01:57:25;;;;;;;0.43;0.08;;;;;;;19.05;37.09;101726.97;5013564;28;20029;-69
2022/02/12 01:59:50;;;;;;;0.20;0.10;;;;;;;19.05;37.50;101736.00;4995702;28;20021;-68
2022/02/12 02:02:16;;;;;;;0.45;0.00;;;;;;;19.07;37.29;101727.69;5013614;28;20113;-68
2022/02/12 02:04:42;;;;;;;0.75;0.10;;;;;;;19.05;37.62;101721.53;5024767;28;20022;-69
2022/02/12 02:07:10;;;;;;;0.68;0.10;;;;;;;19.04;37.93;101717.94;5033213;28;20136;-69
2022/02/12 02:09:36;;;;;;;1.13;0.10;;;;;;;19.07;37.57;101716.78;5015204;28;20031;-68
2022/02/12 02:12:02;;;;;;;1.20;0.10;;;;;;;19.04;38.02;101717.94;5015403;28;20032;-69
2022/02/12 02:14:37;;;;;;;1.30;0.40;;;;;;;19.06;38.06;101706.88;5033011;28;20029;-69
2022/02/12 02:17:03;;;;;;;1.02;0.20;;;;;;;19.05;37.19;101710.63;5032272;28;20029;-68
2022/02/12 02:19:30;;;;;;;0.55;0.25;;;;;;;19.03;37.79;101704.47;5032528;28;20029;-69
2022/02/12 02:21:57;;;;;;;0.80;0.20;;;;;;;19.02;38.92;101702.75;5032871;28;20056;-69
2022/02/12 02:24:23;;;;;;;0.65;0.30;;;;;;;19.01;37.26;101706.50;4999717;28;20500;-69
2022/02/12 02:26:48;;;;;;;0.90;0.10;;;;;;;19.01;37.49;101701.06;5012879;28;20029;-68
2022/02/12 02:29:14;;;;;;;0.95;0.20;;;;;;;19.02;37.65;101697.31;5013169;28;20056;-69
2022/02/12 02:31:39;;;;;;;0.35;0.10;;;;;;;18.97;38.42;101695.03;5012857;28;20069;-69
2022/02/12 02:34:12;;;;;;;0.60;0.10;;;;;;;19.00;37.70;101700.19;5013053;28;20013;-67
2022/02/12 02:36:38;;;;;;;0.85;0.38;;;;;;;19.01;37.57;101696.47;5012716;28;20125;-69
2022/02/12 02:39:05;;;;;;;0.45;0.20;;;;;;;18.99;37.92;101700.34;5013015;28;20034;-69
2022/02/12 02:41:30;;;;;;;0.10;0.03;;;;;;;19.00;38.31;101699.34;5012807;28;20025;-67
2022/02/12 02:43:55;;;;;;;1.08;0.20;;;;;;;18.98;38.20;101691.31;5012713;28;20025;-69
2022/02/12 02:46:21;;;;;;;0.40;0.00;;;;;;;18.99;37.40;101692.19;5008084;28;20469;-69
2022/02/12 02:48:46;;;;;;;0.10;0.00;;;;;;;18.97;37.53;101688.72;5014328;28;20036;-68
2022/02/12 02:56:40;;;;;;;;;;;;;;;18.98;38.62;101693.16;5032973;28;20087;-69
2022/02/12 02:59:06;;;;;;;0.50;0.10;;;;;;;18.94;38.09;101679.00;5032489;28;19908;-68
2022/02/12 03:01:31;;;;;;;0.00;0.00;;;;;;;18.94;37.30;101693.47;5032362;28;20753;-68
2022/02/12 03:03:57;;;;;;;0.25;0.10;;;;;;;18.92;38.10;101684.59;5032015;28;20030;-69
2022/02/12 03:06:25;;;;;;;0.38;0.00;;;;;;;18.93;37.74;101694.50;5014488;28;20390;-68
2022/02/12 03:08:51;;;;;;;0.10;0.00;;;;;;;18.93;38.32;101689.03;5032209;28;20025;-70
2022/02/12 03:11:16;;;;;;;1.08;0.10;;;;;;;18.94;38.03;101682.56;5032422;28;20029;-69
2022/02/12 03:13:44;;;;;;;0.80;0.10;;;;;;;18.93;37.75;101689.03;5014419;28;20025;-68
2022/02/12 03:16:10;;;;;;;0.60;0.10;;;;;;;18.96;37.50;101682.41;5014694;28;20022;-69
2022/02/12 03:18:37;;;;;;;1.30;0.30;;;;;;;18.93;37.72;101683.59;5014375;28;20091;-67
2022/02/12 03:21:02;;;;;;;0.38;0.20;;;;;;;18.90;37.72;101669.44;5032359;28;20025;-69
2022/02/12 03:23:27;;;;;;;0.03;0.00;;;;;;;18.92;37.92;101670.97;5014511;28;20029;-69
2022/02/12 03:25:52;;;;;;;0.95;0.20;;;;;;;18.91;38.41;101663.81;5032030;28;20029;-68
2022/02/12 03:28:18;;;;;;;0.10;0.05;;;;;;;18.93;37.87;101661.78;5032247;28;20465;-69
2022/02/12 03:30:48;;;;;;;0.45;0.00;;;;;;;18.89;38.32;101660.41;5032038;28;20108;-69
2022/02/12 03:33:14;;;;;;;0.65;0.10;;;;;;;18.88;37.42;101658.69;5032270;28;20029;-68
2022/02/12 03:35:40;;;;;;;0.45;0.20;;;;;;;18.87;38.18;101662.41;5013560;28;20068;-69
2022/02/12 03:38:10;;;;;;;1.13;0.25;;;;;;;18.87;38.50;101654.25;5032264;28;20029;-69
2022/02/12 03:40:38;;;;;;;0.73;0.20;;;;;;;18.87;37.50;101656.13;5031930;28;20487;-69
2022/02/12 03:43:04;;;;;;;0.75;0.17;;;;;;;18.85;38.34;101656.28;5032131;28;20396;-69
2022/02/12 03:45:30;;;;;;;0.47;0.00;;;;;;;18.85;37.75;101661.72;5031871;28;20433;-68
2022/02/12 03:47:56;;;;;;;1.38;0.22;;;;;;;18.83;38.10;101671.94;5031942;28;20109;-68
2022/02/12 03:50:21;;;;;;;0.40;0.10;;;;;;;18.87;37.21;101670.59;5032073;28;20527;-70
2022/02/12 03:52:49;;;;;;;0.20;0.10;;;;;;;18.81;37.85;101673.94;5031616;28;20394;-68
2022/02/12 03:55:14;;;;;;;0.65;0.13;;;;;;;18.84;38.32;101676.38;5032058;28;20049;-69
2022/02/12 03:57:41;;;;;;;0.30;0.10;;;;;;;18.83;37.62;101681.97;5031703;28;20493;-69
2022/02/12 04:00:11;;;;;;;1.85;0.22;;;;;;;18.85;38.55;101677.22;5014171;28;20025;-68
2022/02/12 04:02:43;;;;;;;0.20;0.10;;;;;;;18.82;38.05;101680.25;5031416;28;20053;-69
2022/02/12 04:05:14;;;;;;;0.03;0.03;;;;;;;18.87;38.03;101684.22;5034948;28;20029;-69
2022/02/12 04:07:41;;;;;;;0.13;0.08;;;;;;;18.83;37.56;101677.38;5035264;28;20112;-69
2022/02/12 04:10:08;;;;;;;0.25;0.10;;;;;;;18.84;38.17;101687.25;5035454;28;20064;-69
2022/02/12 04:12:33;;;;;;;0.88;0.10;;;;;;;18.82;37.40;101681.13;5035149;28;20033;-67
2022/02/12 04:14:59;;;;;;;0.10;0.10;;;;;;;18.85;37.64;101675.34;5035327;28;20048;-69
2022/02/12 04:17:24;;;;;;;0.32;0.10;;;;;;;18.82;38.01;101680.25;5035259;28;20105;-68
2022/02/12 04:19:51;;;;;;;0.30;0.10;;;;;;;18.78;38.73;101679.69;5035053;28;20052;-69
2022/02/12 04:22:16;;;;;;;0.05;0.00;;;;;;;18.80;38.17;101680.38;5017531;28;20025;-69
2022/02/12 04:24:41;;;;;;;0.38;0.17;;;;;;;18.81;37.71;101679.41;5017090;28;20033;-67
2022/02/12 04:27:07;;;;;;;0.85;0.20;;;;;;;18.82;37.92;101670.22;5035065;28;20025;-69
2022/02/12 04:29:32;;;;;;;0.43;0.10;;;;;;;18.82;38.21;101669.34;5034904;28;20370;-68
2022/02/12 04:31:57;;;;;;;0.30;0.25;;;;;;;18.81;38.25;101673.94;5034541;28;20025;-68
2022/02/12 04:34:22;;;;;;;0.30;0.00;;;;;;;18.82;38.35;101670.22;5017256;28;20026;-69
2022/02/12 04:36:50;;;;;;;0.45;0.10;;;;;;;18.80;38.23;101672.22;5034686;28;20029;-68
2022/02/12 04:39:15;;;;;;;0.55;0.00;;;;;;;18.76;37.68;101665.38;5034932;28;20470;-69
2022/02/12 04:41:41;;;;;;;0.75;0.10;;;;;;;18.76;38.26;101659.91;5034596;28;20109;-68
2022/02/12 04:44:06;;;;;;;0.22;0.22;;;;;;;18.77;37.96;101660.78;5034461;28;20025;-67
2022/02/12 04:46:31;;;;;;;0.20;0.10;;;;;;;18.75;37.81;101658.19;5034625;28;20381;-68
2022/02/12 04:48:57;;;;;;;0.25;0.10;;;;;;;18.78;38.03;101657.03;5034605;28;20029;-69
2022/02/12 04:51:22;;;;;;;0.22;0.10;;;;;;;18.74;38.33;101659.22;5034726;28;20044;-68
2022/02/12 04:53:49;;;;;;;0.17;0.10;;;;;;;18.78;38.50;101652.44;5034195;28;20073;-68
2022/02/12 04:56:16;;;;;;;0.45;0.22;;;;;;;18.77;38.03;101650.72;5017144;28;20053;-69
2022/02/12 04:58:41;;;;;;;2.45;0.20;;;;;;;18.79;38.70;101658.75;5034238;28;20491;-68
2022/02/12 05:01:06;;;;;;;0.20;0.00;;;;;;;19.48;36.91;101649.81;5034485;28;20021;-69
2022/02/12 05:03:32;;;;;;;0.22;0.20;;;;;;;20.13;35.30;101645.63;5034040;28;20025;-69
2022/02/12 05:05:57;;;;;;;0.30;0.10;;;;;;;20.40;35.91;101641.81;5034193;28;20383;-69
2022/02/12 05:08:22;;;;;;;0.22;0.10;;;;;;;20.59;35.57;101632.50;5034325;28;20033;-69
2022/02/12 05:10:47;;;;;;;0.22;0.00;;;;;;;20.69;35.29;101640.56;5033879;28;20108;-69
2022/02/12 05:13:14;;;;;;;0.38;0.10;;;;;;;20.81;35.35;101627.41;5034321;28;20037;-69
2022/02/12 05:15:40;;;;;;;0.13;0.00;;;;;;;20.90;35.11;101623.69;5033900;28;20472;-69
2022/02/12 05:18:05;;;;;;;0.63;0.13;;;;;;;20.99;35.25;101615.31;5034158;28;20112;-68
2022/02/12 05:20:30;;;;;;;0.80;0.10;;;;;;;21.05;35.48;101607.47;5016176;28;20464;-68
2022/02/12 05:22:55;;;;;;;0.68;0.10;;;;;;;21.13;35.46;101615.66;5034276;28;20458;-69
2022/02/12 05:25:21;;;;;;;0.68;0.10;;;;;;;21.15;35.82;101624.53;5033991;28;20026;-68
2022/02/12 05:27:46;;;;;;;0.30;0.08;;;;;;;21.21;36.42;101613.78;5033772;28;20041;-69
2022/02/12 05:30:12;;;;;;;0.50;0.10;;;;;;;21.23;36.22;101622.66;5032309;28;20151;-70
2022/02/12 05:32:37;;;;;;;0.40;0.40;;;;;;;21.28;35.40;101613.97;5023183;28;20032;-68
2022/02/12 05:35:03;;;;;;;0.57;0.17;;;;;;;21.37;36.18;101612.94;5016050;28;20112;-69
2022/02/12 05:37:28;;;;;;;0.10;0.10;;;;;;;21.36;36.18;101624.06;5033701;28;20026;-69
2022/02/12 05:39:53;;;;;;;0.08;0.08;;;;;;;21.39;36.14;101626.44;5033568;28;20032;-69
2022/02/12 05:42:18;;;;;;;0.43;0.10;;;;;;;21.41;35.66;101618.94;5033638;28;20420;-68
2022/02/12 05:44:44;;;;;;;1.08;0.10;;;;;;;21.43;35.77;101614.97;5033402;28;20382;-68
2022/02/12 05:47:09;;;;;;;1.38;0.20;;;;;;;21.46;35.85;101611.03;5033604;28;20025;-69
2022/02/12 05:49:34;;;;;;;1.40;0.22;;;;;;;21.52;36.04;101604.91;5033355;28;20427;-69
2022/02/12 05:51:59;;;;;;;0.03;0.03;;;;;;;21.54;35.77;101609.16;5033778;28;20021;-68
2022/02/12 05:54:25;;;;;;;0.13;0.00;;;;;;;21.52;36.14;101604.91;5033329;28;20045;-69
2022/02/12 05:56:50;;;;;;;0.63;0.10;;;;;;;21.57;35.38;101607.97;5033164;28;20045;-69
2022/02/12 05:59:18;;;;;;;0.20;0.05;;;;;;;21.54;35.79;101602.84;5033375;28;20105;-69
2022/02/12 06:01:44;;;;;;;0.15;0.10;;;;;;;21.62;35.67;101602.81;5015169;28;20099;-68
2022/02/12 06:04:09;;;;;;;0.43;0.10;;;;;;;21.62;35.84;101600.06;5015390;28;20037;-69
2022/02/12 06:06:34;;;;;;;0.10;0.00;;;;;;;21.58;36.54;101599.56;5033087;28;20027;-69
2022/02/12 06:09:00;;;;;;;0.82;0.35;;;;;;;21.60;36.11;101607.59;5033160;28;20033;-69
2022/02/12 06:11:25;;;;;;;0.22;0.10;;;;;;;21.65;35.77;101599.72;5015441;28;20029;-69
2022/02/12 06:13:51;;;;;;;0.20;0.00;;;;;;;21.69;35.88;101609.31;5032876;28;20421;-68
2022/02/12 06:16:22;;;;;;;0.73;0.10;;;;;;;21.69;36.05;101608.44;5033145;28;20553;-69
2022/02/12 06:18:47;;;;;;;0.10;0.00;;;;;;;21.69;36.53;101605.72;5015022;28;20029;-68
2022/02/12 06:21:14;;;;;;;0.52;0.10;;;;;;;21.72;35.47;101617.16;5033038;28;20090;-68
2022/02/12 06:23:39;;;;;;;0.63;0.10;;;;;;;21.72;36.39;101608.09;5023336;28;20025;-68
2022/02/12 06:26:05;;;;;;;0.50;0.13;;;;;;;21.73;35.88;101613.41;5013015;28;20026;-68
2022/02/12 06:28:31;;;;;;;0.25;0.10;;;;;;;21.75;36.34;101610.47;5012805;28;20045;-68
2022/02/12 06:30:56;;;;;;;0.60;0.10;;;;;;;21.77;36.46;101608.41;5022028;28;20029;-68
2022/02/12 06:33:22;;;;;;;0.10;0.10;;;;;;;21.76;36.10;101601.22;5032900;28;20432;-68
2022/02/12 06:35:47;;;;;;;0.13;0.10;;;;;;;21.75;36.53;101594.91;5032538;28;20025;-68
2022/02/12 06:38:12;;;;;;;0.40;0.10;;;;;;;21.79;36.31;101607.19;5032770;28;20475;-68
2022/02/12 06:40:38;;;;;;;0.60;0.15;;;;;;;21.76;35.78;101610.28;5032487;28;20039;-68
2022/02/12 06:43:06;;;;;;;0.30;0.10;;;;;;;21.74;36.14;101615.09;5014921;28;20032;-67
2022/02/12 06:45:33;;;;;;;0.22;0.08;;;;;;;21.84;36.17;101613.03;5032478;28;20025;-69
2022/02/12 06:47:58;;;;;;;0.03;0.00;;;;;;;21.79;36.54;101623.63;5032850;28;20373;-68
2022/02/12 06:50:24;;;;;;;0.10;0.10;;;;;;;21.79;36.21;101622.78;5032622;28;20025;-68
2022/02/12 06:52:49;;;;;;;0.32;0.00;;;;;;;21.84;35.83;101631.34;5032123;28;20045;-69
2022/02/12 06:55:14;;;;;;;0.55;0.10;;;;;;;21.83;36.38;101627.72;5032583;28;20025;-68
2022/02/12 06:57:39;;;;;;;0.75;0.22;;;;;;;21.84;36.32;101625.88;5032174;28;20028;-67
2022/02/12 07:00:06;;;;;;;0.65;0.00;;;;;;;21.83;36.38;101633.19;5032276;28;20127;-69
2022/02/12 07:02:31;;;;;;;0.47;0.20;;;;;;;21.91;36.00;101644.13;5032377;28;20029;-69
2022/02/12 07:04:57;;;;;;;0.10;0.00;;;;;;;21.87;35.95;101628.25;5032270;28;20098;-68
2022/02/12 07:07:23;;;;;;;1.50;0.35;;;;;;;21.86;36.46;101629.28;5032433;28;20076;-67
2022/02/12 07:09:48;;;;;;;0.10;0.03;;;;;;;21.89;35.92;101629.78;5032197;28;20034;-68
2022/02/12 07:12:14;;;;;;;0.20;0.20;;;;;;;21.90;37.43;101628.75;5032445;28;20074;-68
2022/02/12 07:14:39;;;;;;;0.13;0.10;;;;;;;21.90;36.32;101631.47;5014412;28;20029;-68
2022/02/12 07:17:04;;;;;;;0.20;0.10;;;;;;;21.92;36.22;101623.09;5032397;28;20033;-69
2022/02/12 07:19:30;;;;;;;0.50;0.10;;;;;;;21.97;35.74;101630.75;5032282;28;20030;-68
2022/02/12 07:21:55;;;;;;;0.93;0.00;;;;;;;21.91;36.34;101622.22;5031801;28;20027;-69
2022/02/12 07:24:20;;;;;;;0.35;0.10;;;;;;;21.91;36.52;101622.22;5032170;28;20408;-69
2022/02/12 07:26:46;;;;;;;0.22;0.10;;;;;;;21.97;36.12;101625.28;5032041;28;20028;-68
2022/02/12 07:29:11;;;;;;;0.47;0.10;;;;;;;22.01;36.46;101621.19;5032308;28;20032;-69
2022/02/12 07:31:36;;;;;;;0.20;0.00;;;;;;;21.96;36.95;101629.06;5031994;28;20025;-68
2022/02/12 07:34:02;;;;;;;0.65;0.15;;;;;;;22.01;36.60;101621.19;5032178;28;20049;-68
2022/02/12 07:36:27;;;;;;;1.30;0.10;;;;;;;22.00;36.45;101624.91;5032119;28;20029;-69
2022/02/12 07:38:53;;;;;;;0.20;0.20;;;;;;;21.99;36.12;101629.53;5032739;28;20029;-68
2022/02/12 07:41:18;;;;;;;0.15;0.10;;;;;;;21.97;36.76;101608.84;5036005;28;20350;-68
2022/02/12 07:43:47;;;;;;;0.68;0.20;;;;;;;21.97;36.82;101608.84;5035683;28;20033;-68
2022/02/12 07:46:13;;;;;;;0.57;0.10;;;;;;;21.98;36.30;101614.16;5018052;28;20489;-68
2022/02/12 07:48:39;;;;;;;1.00;0.30;;;;;;;21.97;36.14;101603.38;5035366;28;20029;-69
2022/02/12 07:51:04;;;;;;;0.00;0.00;;;;;;;22.02;36.30;101620.16;5017882;28;20088;-68
2022/02/12 07:53:30;;;;;;;0.63;0.10;;;;;;;22.10;36.13;101609.19;5035526;28;20050;-66
2022/02/12 07:55:55;;;;;;;0.52;0.10;;;;;;;22.04;36.38;101609.88;5035870;28;20465;-69
2022/02/12 07:58:20;;;;;;;0.22;0.05;;;;;;;22.04;36.61;101609.88;5035687;28;20052;-69
2022/02/12 08:00:47;;;;;;;0.50;0.20;;;;;;;22.04;36.28;101607.13;5035371;28;20030;-68
2022/02/12 08:03:13;;;;;;;0.20;0.10;;;;;;;22.07;36.36;101609.53;5035629;28;20021;-69
2022/02/12 08:05:38;;;;;;;1.65;0.35;;;;;;;22.07;36.77;101615.03;5035184;28;20370;-68
2022/02/12 08:08:04;;;;;;;0.20;0.00;;;;;;;22.02;37.11;101604.56;5035514;28;20120;-68
2022/02/12 08:13:13;;;;;;;0.17;0.10;;;;;;;22.02;36.72;101601.00;5035502;28;20079;-68
2022/02/12 08:15:39;;;;;;;0.35;0.10;;;;;;;22.02;36.18;101611.94;5035121;28;20424;-68
2022/02/12 08:18:04;;;;;;;0.98;0.10;;;;;;;22.08;36.19;101608.50;5017796;28;20031;-69
2022/02/12 08:20:29;;;;;;;0.28;0.10;;;;;;;22.07;36.68;101604.06;5034868;28;20025;-67
2022/02/12 08:22:54;;;;;;;0.47;0.03;;;;;;;22.03;36.47;101600.81;5035016;28;20017;-68
2022/02/12 08:25:20;;;;;;;0.10;0.08;;;;;;;22.06;36.97;101607.84;5035133;28;20458;-69
2022/02/12 08:27:46;;;;;;;0.13;0.10;;;;;;;22.11;36.46;101599.94;5017395;28;20029;-68
2022/02/12 08:30:12;;;;;;;0.32;0.10;;;;;;;22.07;36.18;101593.13;5035141;28;20017;-69
2022/02/12 08:32:41;;;;;;;0.50;0.10;;;;;;;22.07;36.64;101598.59;5034773;28;20496;-68
2022/02/12 08:35:10;;;;;;;0.30;0.10;;;;;;;22.13;36.05;101593.25;5017205;28;20104;-68
2022/02/12 08:37:38;;;;;;;0.40;0.20;;;;;;;22.15;36.49;101601.28;5016963;28;20033;-69
2022/02/12 08:40:05;;;;;;;0.85;0.20;;;;;;;22.19;35.20;101597.19;5017055;28;20550;-68
2022/02/12 08:42:30;;;;;;;0.15;0.10;;;;;;;22.08;36.32;101597.56;5034722;28;20025;-67
2022/02/12 08:44:56;;;;;;;1.65;0.03;;;;;;;22.08;36.40;101594.81;5034591;28;20100;-69
2022/02/12 08:47:21;;;;;;;0.03;0.00;;;;;;;22.13;36.55;101608.81;5034828;28;20469;-68
2022/02/12 08:49:46;;;;;;;0.43;0.10;;;;;;;22.13;36.42;101597.88;5033662;28;20036;-68
2022/02/12 08:52:11;;;;;;;0.30;0.10;;;;;;;22.13;36.68;101603.34;5034751;28;20023;-69
2022/02/12 08:54:37;;;;;;;0.52;0.13;;;;;;;22.11;36.63;101600.78;5034223;28;20124;-68
2022/02/12 08:57:03;;;;;;;0.43;0.17;;;;;;;22.19;35.97;101597.19;5034543;28;20104;-68
2022/02/12 08:59:31;;;;;;;0.30;0.10;;;;;;;22.18;36.30;101600.94;5034493;28;20026;-69
2022/02/12 09:01:57;;;;;;;0.47;0.10;;;;;;;22.20;35.77;101596.16;5034393;28;20025;-68
2022/02/12 09:04:23;;;;;;;0.77;0.10;;;;;;;22.19;36.63;101602.66;5034407;28;20028;-69
2022/02/12 09:06:48;;;;;;;1.02;0.20;;;;;;;22.12;36.94;101607.13;5034116;28;20032;-67
2022/02/12 09:09:13;;;;;;;0.40;0.20;;;;;;;22.12;36.65;101612.59;5034435;28;20083;-68
2022/02/12 09:11:42;;;;;;;0.20;0.20;;;;;;;22.12;36.44;101613.44;5016281;28;20049;-68
2022/02/12 09:14:08;;;;;;;1.02;0.10;;;;;;;22.14;35.44;101603.16;5034342;28;20159;-69
2022/02/12 09:16:34;;;;;;;2.10;0.40;;;;;;;22.26;36.57;101600.88;5034130;28;20496;-67
2022/02/12 09:19:00;;;;;;;0.20;0.10;;;;;;;22.17;36.37;101605.56;5033913;28;20074;-69
2022/02/12 09:21:25;;;;;;;0.82;0.10;;;;;;;22.18;36.49;101601.81;5033864;28;20033;-68
2022/02/12 09:23:51;;;;;;;0.60;0.05;;;;;;;22.15;36.33;101607.59;5033825;28;20029;-68
2022/02/12 09:26:19;;;;;;;0.10;0.10;;;;;;;22.19;36.23;101610.88;5034049;28;20033;-69
2022/02/12 09:28:45;;;;;;;1.58;0.40;;;;;;;22.16;36.74;101611.19;5033799;28;20029;-68
2022/02/12 09:31:10;;;;;;;0.00;0.00;;;;;;;22.22;36.29;101613.25;5016180;28;20357;-68
2022/02/12 09:33:35;;;;;;;0.63;0.30;;;;;;;22.23;36.62;101614.94;5033646;28;20053;-69
2022/02/12 09:36:01;;;;;;;0.00;0.00;;;;;;;22.22;36.79;101607.78;5033854;28;20014;-68
2022/02/12 09:38:28;;;;;;;0.30;0.00;;;;;;;22.25;36.08;101615.63;5033827;28;20025;-69
2022/02/12 09:40:54;;;;;;;0.20;0.10;;;;;;;22.20;37.06;101620.78;5033554;28;20124;-68
2022/02/12 09:43:22;;;;;;;0.20;0.10;;;;;;;22.12;36.34;101607.13;5033705;28;20029;-68
2022/02/12 09:46:03;;;;;;;0.20;0.00;;;;;;;22.21;36.74;101615.13;5033398;28;20029;-69
2022/02/12 09:48:30;;;;;;;2.05;0.30;;;;;;;22.17;37.26;101616.53;5033317;28;20055;-68
2022/02/12 09:50:58;;;;;;;0.22;0.10;;;;;;;22.21;36.75;101617.00;5033468;28;20032;-69
2022/02/12 09:53:24;;;;;;;0.70;0.10;;;;;;;22.21;35.81;101619.75;5015793;28;20475;-69
2022/02/12 09:55:49;;;;;;;0.43;0.00;;;;;;;22.25;35.89;101623.84;5033224;28;20018;-68
2022/02/12 09:58:15;;;;;;;1.65;0.20;;;;;;;22.19;36.65;101624.56;5033443;28;20028;-68
2022/02/12 10:00:41;;;;;;;0.00;0.00;;;;;;;22.21;36.94;101617.00;5027328;28;20036;-69
2022/02/12 10:03:06;;;;;;;0.70;0.22;;;;;;;22.23;36.45;101614.94;5012886;28;20025;-68
2022/02/12 10:05:32;;;;;;;0.20;0.10;;;;;;;22.23;35.94;101609.47;4995664;28;20022;-69
2022/02/12 10:08:00;;;;;;;0.20;0.00;;;;;;;22.20;36.75;101609.84;5013467;28;20362;-68
2022/02/12 10:10:27;;;;;;;1.13;0.10;;;;;;;22.20;37.27;101613.44;5013450;28;20413;-68
2022/02/12 10:12:53;;;;;;;0.32;0.10;;;;;;;22.21;36.92;101612.41;4995903;28;20033;-69
2022/02/12 10:15:29;;;;;;;0.00;0.00;;;;;;;22.19;36.44;101614.47;5013436;28;20458;-67
2022/02/12 10:17:57;;;;;;;0.10;0.03;;;;;;;22.31;35.84;101609.41;5014675;28;20382;-69
2022/02/12 10:20:33;;;;;;;0.55;0.28;;;;;;;22.23;36.72;101620.44;5033068;28;20105;-68
2022/02/12 10:23:07;;;;;;;1.85;0.20;;;;;;;22.23;36.60;101609.47;5029297;28;20071;-68
2022/02/12 10:25:34;;;;;;;0.68;0.10;;;;;;;22.30;36.22;101604.97;5012996;28;20033;-69
2022/02/12 10:28:00;;;;;;;0.20;0.10;;;;;;;22.26;37.24;101613.72;5013168;28;20025;-69
2022/02/12 10:30:26;;;;;;;0.28;0.10;;;;;;;22.30;37.09;101613.19;5013133;28;20025;-69
2022/02/12 10:32:55;;;;;;;0.50;0.10;;;;;;;22.27;35.60;101608.06;5012929;28;20036;-68
2022/02/12 10:35:20;;;;;;;0.25;0.10;;;;;;;22.27;36.44;101610.81;4995462;28;20036;-69
2022/02/12 10:37:47;;;;;;;0.40;0.10;;;;;;;22.25;37.21;101601.06;5012763;28;20022;-68
2022/02/12 10:40:14;;;;;;;0.20;0.00;;;;;;;22.28;35.95;101601.56;5013082;28;20052;-69
2022/02/12 10:42:43;;;;;;;0.20;0.20;;;;;;;22.26;37.13;101614.59;4995101;28;20026;-68
2022/02/12 10:45:12;;;;;;;0.20;0.10;;;;;;;22.30;36.82;101615.06;4995401;28;20026;-68
2022/02/12 10:47:38;;;;;;;0.90;0.20;;;;;;;22.21;37.25;101622.50;5012682;28;20033;-69
2022/02/12 10:50:03;;;;;;;1.63;0.32;;;;;;;22.31;36.89;101614.91;5013577;28;20033;-68
2022/02/12 10:52:39;;;;;;;0.38;0.13;;;;;;;22.29;37.03;101608.75;5014595;28;20033;-69
2022/02/12 10:55:05;;;;;;;0.05;0.00;;;;;;;22.28;37.14;101612.53;5032592;28;20056;-69
2022/02/12 10:57:38;;;;;;;0.10;0.10;;;;;;;22.29;37.30;101603.25;5032434;28;20057;-67
2022/02/12 11:00:05;;;;;;;0.32;0.25;;;;;;;22.33;36.75;101601.88;5032569;28;20025;-69
2022/02/12 11:02:30;;;;;;;0.20;0.00;;;;;;;22.27;36.67;101605.34;5032384;28;20053;-67
2022/02/12 11:04:57;;;;;;;0.68;0.22;;;;;;;22.38;36.76;101602.22;5032317;28;20602;-68
2022/02/12 11:07:23;;;;;;;1.20;0.20;;;;;;;22.35;36.00;101599.84;5032690;28;20385;-70
2022/02/12 11:09:48;;;;;;;0.10;0.10;;;;;;;22.27;36.89;101599.84;5014493;28;20060;-67
2022/02/12 11:12:15;;;;;;;0.10;0.03;;;;;;;22.28;36.36;101603.44;5032453;28;20523;-69
2022/02/12 11:14:43;;;;;;;0.00;0.00;;;;;;;22.24;37.01;101605.69;5018275;28;20021;-68
2022/02/12 11:17:18;;;;;;;0.28;0.00;;;;;;;22.29;37.13;101603.25;5036465;28;20037;-68
2022/02/12 11:19:45;;;;;;;0.32;0.10;;;;;;;22.31;36.69;101609.41;5035694;28;20022;-69
2022/02/12 11:22:11;;;;;;;0.30;0.10;;;;;;;22.33;36.79;101601.88;5036044;28;20473;-69
2022/02/12 11:24:44;;;;;;;0.60;0.10;;;;;;;22.29;36.63;101592.31;5035981;28;20461;-69
2022/02/12 11:27:19;;;;;;;0.20;0.20;;;;;;;22.36;37.05;101598.78;5036380;28;20025;-68